createdAt,value
2023-10-10T00:01:16.703Z,40.18
2023-10-10T00:03:42.981Z,39.08
2023-10-10T00:06:09.272Z,39.24
2023-10-10T00:08:35.590Z,39.57
2023-10-10T00:11:01.898Z,39.44
2023-10-10T00:13:28.178Z,37.76
2023-10-10T00:15:54.470Z,38.02
2023-10-10T00:18:20.756Z,38.19
2023-10-10T00:20:47.043Z,38.16
2023-10-10T00:23:13.370Z,37.32
2023-10-10T00:25:39.653Z,36.31
2023-10-10T00:28:05.922Z,35.17
2023-10-10T00:30:32.208Z,35.32
2023-10-10T00:32:58.496Z,36.16
2023-10-10T00:35:24.817Z,36.50
2023-10-10T00:37:51.118Z,37.61
2023-10-10T00:40:17.386Z,38.63
2023-10-10T00:42:43.661Z,40.02
2023-10-10T00:45:09.951Z,41.35
2023-10-10T00:47:36.388Z,40.74
2023-10-10T00:50:02.795Z,41.94
2023-10-10T00:52:29.068Z,42.22
2023-10-10T00:54:55.345Z,41.96
2023-10-10T00:57:21.622Z,42.48
2023-10-10T00:59:47.889Z,42.68
2023-10-10T01:02:14.256Z,39.80
2023-10-10T01:04:40.661Z,38.49
2023-10-10T01:07:06.982Z,38.01
2023-10-10T01:09:33.282Z,39.52
2023-10-10T01:11:59.600Z,40.60
2023-10-10T01:14:25.942Z,41.78
2023-10-10T01:16:52.349Z,42.73
2023-10-10T01:19:18.712Z,42.88
2023-10-10T01:21:45.036Z,43.32
2023-10-10T01:24:11.333Z,43.19
2023-10-10T01:26:37.604Z,42.74
2023-10-10T01:29:03.979Z,42.42
2023-10-10T01:31:30.285Z,42.61
2023-10-10T01:33:56.594Z,42.23
2023-10-10T01:36:22.898Z,40.57
2023-10-10T01:38:49.175Z,39.03
2023-10-10T01:41:15.504Z,38.78
2023-10-10T01:43:41.852Z,37.92
2023-10-10T01:46:08.211Z,37.80
2023-10-10T01:48:34.529Z,37.93
2023-10-10T01:51:00.816Z,38.37
2023-10-10T01:53:27.124Z,38.64
2023-10-10T01:55:53.428Z,38.93
2023-10-10T01:58:19.709Z,38.62
2023-10-10T02:00:46.008Z,38.62
2023-10-10T02:03:12.459Z,37.16
2023-10-10T02:05:38.933Z,37.26
2023-10-10T02:08:05.276Z,36.97
2023-10-10T02:10:31.558Z,36.70
2023-10-10T02:12:57.824Z,37.57
2023-10-10T02:15:24.155Z,38.35
2023-10-10T02:17:50.464Z,40.34
2023-10-10T02:20:16.806Z,41.21
2023-10-10T02:22:43.077Z,40.69
2023-10-10T02:25:09.347Z,40.47
2023-10-10T02:27:35.634Z,40.16
2023-10-10T02:30:01.926Z,39.38
2023-10-10T02:32:28.247Z,39.74
2023-10-10T02:34:54.628Z,41.39
2023-10-10T02:37:20.909Z,42.84
2023-10-10T02:39:47.220Z,42.59
2023-10-10T02:42:13.577Z,42.98
2023-10-10T02:44:39.869Z,41.51
2023-10-10T02:47:06.359Z,40.98
2023-10-10T02:49:32.686Z,40.85
2023-10-10T02:51:58.961Z,41.76
2023-10-10T02:54:25.235Z,41.54
2023-10-10T02:56:51.541Z,41.48
2023-10-10T02:59:17.928Z,42.29
2023-10-10T03:01:44.251Z,43.32
2023-10-10T03:04:10.730Z,43.62
2023-10-10T03:06:37.095Z,43.25
2023-10-10T03:09:03.382Z,42.32
2023-10-10T03:11:29.734Z,41.11
2023-10-10T03:13:56.049Z,38.61
2023-10-10T03:16:22.355Z,38.31
2023-10-10T03:18:48.647Z,37.29
2023-10-10T03:21:14.924Z,37.00
2023-10-10T03:23:41.207Z,38.58
2023-10-10T03:26:07.518Z,38.56
2023-10-10T03:28:33.837Z,38.43
2023-10-10T03:31:00.134Z,38.98
2023-10-10T03:33:26.450Z,39.33
2023-10-10T03:35:52.727Z,39.56
2023-10-10T03:38:19.003Z,40.71
2023-10-10T03:40:45.321Z,40.87
2023-10-10T03:43:11.632Z,40.45
2023-10-10T03:45:37.909Z,39.42
2023-10-10T03:48:04.197Z,38.83
2023-10-10T03:50:30.488Z,37.31
2023-10-10T03:52:56.778Z,36.26
2023-10-10T03:55:23.064Z,35.92
2023-10-10T03:57:49.386Z,36.93
2023-10-10T04:00:15.774Z,39.31
2023-10-10T04:02:42.245Z,39.88
2023-10-10T04:05:23.720Z,39.30
2023-10-10T04:07:52.541Z,39.98
2023-10-10T04:10:18.818Z,40.71
2023-10-10T04:12:45.099Z,42.04
2023-10-10T04:15:11.403Z,43.04
2023-10-10T04:17:37.784Z,42.59
2023-10-10T04:20:04.127Z,40.99
2023-10-10T04:22:30.423Z,42.06
2023-10-10T04:24:58.204Z,43.41
2023-10-10T04:27:25.675Z,43.64
2023-10-10T04:29:51.951Z,43.57
2023-10-10T04:32:18.279Z,42.57
2023-10-10T04:34:44.575Z,41.95
2023-10-10T04:37:10.872Z,40.40
2023-10-10T04:39:37.152Z,38.84
2023-10-10T04:42:03.440Z,38.38
2023-10-10T04:44:29.748Z,39.59
2023-10-10T04:46:56.057Z,39.88
2023-10-10T04:49:22.344Z,38.99
2023-10-10T04:51:48.649Z,38.68
2023-10-10T04:54:15.262Z,38.07
2023-10-10T04:56:41.788Z,38.03
2023-10-10T04:59:08.171Z,37.86
2023-10-10T05:01:34.644Z,37.70
2023-10-10T05:04:01.004Z,37.52
2023-10-10T05:06:27.292Z,37.02
2023-10-10T05:08:53.607Z,36.63
2023-10-10T05:11:19.961Z,38.20
2023-10-10T05:13:46.355Z,39.78
2023-10-10T05:16:12.782Z,40.91
2023-10-10T05:18:39.094Z,41.88
2023-10-10T05:21:05.359Z,42.23
2023-10-10T05:23:31.862Z,41.58
2023-10-10T05:25:58.223Z,41.46
2023-10-10T05:28:24.500Z,40.35
2023-10-10T05:30:50.876Z,40.60
2023-10-10T05:33:17.202Z,39.46
2023-10-10T05:35:43.541Z,37.67
2023-10-10T05:38:10.033Z,37.19
2023-10-10T05:40:36.453Z,36.17
2023-10-10T05:43:02.741Z,35.92
2023-10-10T05:45:29.079Z,37.66
2023-10-10T05:47:55.514Z,38.38
2023-10-10T05:50:21.978Z,37.70
2023-10-10T05:52:48.265Z,36.60
2023-10-10T05:55:17.987Z,36.46
2023-10-10T05:57:44.250Z,37.18
2023-10-10T06:00:10.614Z,36.83
2023-10-10T06:02:36.968Z,36.49
2023-10-10T06:05:03.336Z,38.23
2023-10-10T06:07:29.652Z,39.36
2023-10-10T06:09:55.924Z,40.22
2023-10-10T06:12:22.207Z,39.34
2023-10-10T06:14:48.503Z,39.75
2023-10-10T06:17:14.957Z,40.65
2023-10-10T06:19:41.344Z,40.88
2023-10-10T06:22:07.638Z,40.68
2023-10-10T06:24:33.926Z,41.00
2023-10-10T06:27:00.214Z,42.21
2023-10-10T06:29:26.509Z,42.15
2023-10-10T06:32:11.317Z,41.90
2023-10-10T06:34:56.417Z,40.20
2023-10-10T06:37:41.561Z,38.78
2023-10-10T06:40:26.641Z,38.57
2023-10-10T06:43:11.724Z,38.06
2023-10-10T06:45:56.861Z,37.44
2023-10-10T06:48:41.813Z,38.27
2023-10-10T06:51:26.735Z,37.96
2023-10-10T06:54:11.805Z,38.25
2023-10-10T06:56:56.869Z,36.63
2023-10-10T06:59:41.955Z,36.06
2023-10-10T07:02:26.949Z,36.22
2023-10-10T07:05:12.016Z,39.52
2023-10-10T07:07:57.107Z,37.92
2023-10-10T07:10:41.889Z,35.54
2023-10-10T07:13:26.825Z,36.15
2023-10-10T07:16:11.967Z,35.25
2023-10-10T07:18:56.943Z,36.28
2023-10-10T07:21:41.959Z,36.46
2023-10-10T07:24:27.131Z,36.81
2023-10-10T07:27:12.066Z,36.19
2023-10-10T07:29:57.063Z,37.82
2023-10-10T07:32:42.181Z,38.85
2023-10-10T07:35:27.309Z,38.99
2023-10-10T07:38:12.087Z,38.44
2023-10-10T07:40:57.152Z,36.62
2023-10-10T07:43:42.318Z,34.44
2023-10-10T07:46:27.474Z,36.05
2023-10-10T07:49:12.495Z,34.91
2023-10-10T07:51:57.730Z,35.03
2023-10-10T07:54:42.770Z,36.98
2023-10-10T07:57:27.775Z,37.75
2023-10-10T08:00:12.786Z,36.83
2023-10-10T08:02:57.872Z,39.01
2023-10-10T08:05:42.827Z,37.49
2023-10-10T08:08:27.898Z,38.39
2023-10-10T08:11:13.028Z,38.32
2023-10-10T08:13:58.053Z,37.82
2023-10-10T08:16:43.287Z,39.05
2023-10-10T08:19:28.314Z,39.90
2023-10-10T08:22:13.388Z,42.23
2023-10-10T08:24:58.308Z,38.80
2023-10-10T08:27:44.149Z,37.25
2023-10-10T08:30:29.469Z,37.22
2023-10-10T08:33:14.752Z,37.34
2023-10-10T08:35:59.668Z,36.81
2023-10-10T08:38:44.707Z,37.68
2023-10-10T08:41:29.799Z,37.95
2023-10-10T08:44:14.960Z,36.73
2023-10-10T08:47:00.328Z,37.21
2023-10-10T08:49:45.420Z,35.55
2023-10-10T08:52:30.506Z,36.16
2023-10-10T08:55:15.562Z,35.99
2023-10-10T08:58:00.757Z,37.36
2023-10-10T09:00:49.331Z,36.10
2023-10-10T09:03:34.822Z,36.26
2023-10-10T09:06:19.904Z,36.63
2023-10-10T09:09:04.897Z,36.71
2023-10-10T09:11:50.053Z,37.77
2023-10-10T09:14:35.007Z,36.53
2023-10-10T09:17:19.956Z,36.13
2023-10-10T09:20:05.006Z,36.68
2023-10-10T09:22:50.116Z,35.80
2023-10-10T09:25:35.191Z,37.63
2023-10-10T09:28:20.183Z,36.31
2023-10-10T09:31:05.379Z,36.06
2023-10-10T09:33:50.201Z,36.88
2023-10-10T09:36:35.146Z,35.06
2023-10-10T09:39:20.424Z,36.39
2023-10-10T09:42:05.432Z,36.65
2023-10-10T09:44:50.560Z,35.93
2023-10-10T09:47:35.522Z,36.82
2023-10-10T09:50:20.650Z,36.29
2023-10-10T09:53:05.632Z,37.05
2023-10-10T09:55:50.683Z,35.74
2023-10-10T09:58:35.547Z,36.81
2023-10-10T10:01:20.597Z,36.05
2023-10-10T10:04:05.687Z,35.77
2023-10-10T10:07:06.147Z,36.21
2023-10-10T10:09:52.273Z,36.88
2023-10-10T10:12:37.211Z,36.44
2023-10-10T10:15:22.149Z,37.04
2023-10-10T10:18:07.179Z,35.93
2023-10-10T10:20:52.294Z,36.77
2023-10-10T10:23:37.381Z,36.01
2023-10-10T10:26:22.397Z,36.41
2023-10-10T10:29:07.352Z,36.94
2023-10-10T10:31:52.383Z,36.54
2023-10-10T10:34:37.308Z,34.54
2023-10-10T10:37:22.373Z,36.49
2023-10-10T10:40:07.422Z,36.00
2023-10-10T10:42:52.499Z,37.04
2023-10-10T10:45:37.463Z,36.77
2023-10-10T10:48:22.582Z,35.55
2023-10-10T10:51:07.571Z,35.44
2023-10-10T10:53:52.624Z,37.00
2023-10-10T10:56:37.750Z,36.11
2023-10-10T10:59:22.882Z,35.83
2023-10-10T11:02:07.720Z,34.67
2023-10-10T11:04:52.620Z,36.57
2023-10-10T11:07:37.657Z,37.09
2023-10-10T11:10:22.623Z,35.21
2023-10-10T11:13:07.677Z,34.62
2023-10-10T11:15:52.573Z,34.20
2023-10-10T11:18:37.726Z,35.06
2023-10-10T11:21:22.661Z,34.31
2023-10-10T11:24:07.828Z,36.39
2023-10-10T11:26:52.982Z,34.13
2023-10-10T11:29:38.050Z,35.55
2023-10-10T11:32:23.149Z,34.02
2023-10-10T11:35:08.023Z,35.64
2023-10-10T11:37:53.045Z,34.70
2023-10-10T11:40:38.101Z,32.87
2023-10-10T11:43:23.057Z,33.30
2023-10-10T11:46:08.040Z,33.42
2023-10-10T11:48:53.072Z,34.03
2023-10-10T11:51:38.222Z,33.10
2023-10-10T11:54:23.195Z,33.42
2023-10-10T11:57:08.279Z,34.13
2023-10-10T11:59:53.186Z,34.91
2023-10-10T12:02:38.281Z,34.02
2023-10-10T12:05:23.263Z,33.10
2023-10-10T12:08:08.241Z,33.35
2023-10-10T12:10:53.450Z,31.55
2023-10-10T12:13:38.308Z,33.08
2023-10-10T12:16:23.382Z,31.61
2023-10-10T12:19:08.453Z,33.58
2023-10-10T12:21:53.526Z,32.77
2023-10-10T12:24:38.482Z,33.76
2023-10-10T12:27:23.669Z,34.16
2023-10-10T12:30:08.664Z,33.80
2023-10-10T12:32:53.735Z,32.44
2023-10-10T12:35:38.685Z,31.45
2023-10-10T12:38:23.646Z,32.63
2023-10-10T12:41:08.732Z,32.75
2023-10-10T12:43:53.705Z,34.19
2023-10-10T12:46:38.791Z,33.72
2023-10-10T12:49:23.893Z,36.86
2023-10-10T12:52:09.035Z,34.05
2023-10-10T12:54:54.120Z,32.53
2023-10-10T12:57:39.001Z,35.96
2023-10-10T13:00:24.015Z,35.82
2023-10-10T13:03:09.071Z,34.60
2023-10-10T13:05:54.138Z,32.78
2023-10-10T13:08:39.171Z,32.28
2023-10-10T13:11:24.228Z,35.55
2023-10-10T13:14:09.201Z,33.57
2023-10-10T13:16:54.227Z,33.43
2023-10-10T13:19:39.366Z,32.82
2023-10-10T13:22:24.241Z,32.57
2023-10-10T13:25:09.362Z,33.86
2023-10-10T13:27:54.432Z,33.38
2023-10-10T13:30:39.402Z,32.90
2023-10-10T13:33:24.568Z,34.10
2023-10-10T13:36:09.490Z,33.56
2023-10-10T13:38:54.565Z,35.98
2023-10-10T13:41:39.574Z,40.61
2023-10-10T13:44:24.655Z,41.96
2023-10-10T13:47:09.655Z,42.49
2023-10-10T13:49:54.681Z,36.28
2023-10-10T13:52:39.689Z,36.75
2023-10-10T13:55:24.616Z,35.31
2023-10-10T13:58:09.688Z,33.65
2023-10-10T14:00:54.714Z,35.74
2023-10-10T14:03:39.893Z,40.57
2023-10-10T14:06:24.766Z,42.12
2023-10-10T14:09:09.799Z,41.18
2023-10-10T14:11:56.777Z,41.66
2023-10-10T14:14:42.840Z,40.59
2023-10-10T14:17:28.182Z,40.24
2023-10-10T14:20:12.833Z,39.02
2023-10-10T14:22:57.934Z,39.45
2023-10-10T14:25:42.958Z,40.02
2023-10-10T14:28:27.993Z,39.61
2023-10-10T14:31:13.124Z,40.04
2023-10-10T14:33:58.293Z,39.87
2023-10-10T14:36:43.301Z,41.30
2023-10-10T14:39:28.307Z,36.28
2023-10-10T14:42:13.193Z,35.19
2023-10-10T14:44:58.228Z,37.45
2023-10-10T14:47:43.298Z,37.04
2023-10-10T14:50:28.312Z,35.01
2023-10-10T14:53:13.255Z,37.13
2023-10-10T14:55:58.275Z,36.97
2023-10-10T14:58:43.286Z,40.84
2023-10-10T15:01:28.368Z,41.91
2023-10-10T15:04:13.333Z,41.34
2023-10-10T15:06:58.405Z,39.94
2023-10-10T15:09:43.431Z,39.09
2023-10-10T15:12:28.602Z,40.22
2023-10-10T15:15:13.627Z,41.43
2023-10-10T15:17:58.678Z,41.47
2023-10-10T15:20:43.970Z,42.15
2023-10-10T15:23:28.917Z,43.47
2023-10-10T15:26:14.151Z,41.07
2023-10-10T15:28:59.106Z,41.21
2023-10-10T15:31:44.212Z,39.96
2023-10-10T15:34:29.330Z,40.08
2023-10-10T15:37:14.298Z,42.60
2023-10-10T15:39:59.409Z,40.64
2023-10-10T15:42:44.452Z,42.30
2023-10-10T15:45:29.429Z,41.93
2023-10-10T15:48:14.455Z,41.99
2023-10-10T15:50:59.502Z,42.29
2023-10-10T15:53:44.366Z,42.74
2023-10-10T15:56:29.296Z,41.99
2023-10-10T15:59:14.282Z,42.44
2023-10-10T16:01:59.242Z,42.18
2023-10-10T16:04:44.340Z,43.53
2023-10-10T16:07:29.175Z,43.04
2023-10-10T16:10:15.367Z,42.98
2023-10-10T16:13:00.036Z,43.60
2023-10-10T16:15:45.160Z,42.48
2023-10-10T16:18:30.025Z,41.97
2023-10-10T16:21:14.924Z,41.67
2023-10-10T16:24:00.073Z,41.59
2023-10-10T16:26:45.040Z,42.61
2023-10-10T16:29:30.139Z,42.60
2023-10-10T16:32:15.180Z,42.05
2023-10-10T16:35:00.328Z,42.16
2023-10-10T16:37:45.283Z,41.80
2023-10-10T16:40:30.426Z,41.76
2023-10-10T16:43:15.462Z,41.24
2023-10-10T16:46:00.517Z,42.56
2023-10-10T16:48:45.569Z,43.63
2023-10-10T16:51:30.654Z,42.43
2023-10-10T16:54:15.800Z,42.60
2023-10-10T16:57:00.736Z,43.02
2023-10-10T16:59:45.729Z,42.65
2023-10-10T17:02:31.034Z,42.71
2023-10-10T17:05:16.218Z,42.84
2023-10-10T17:08:01.382Z,41.99
2023-10-10T17:10:46.412Z,42.77
2023-10-10T17:13:31.312Z,42.69
2023-10-10T17:16:16.759Z,42.01
2023-10-10T17:21:49.867Z,42.02
2023-10-10T17:24:34.940Z,40.81
2023-10-10T17:27:20.131Z,40.37
2023-10-10T17:30:05.132Z,39.16
2023-10-10T17:32:50.246Z,37.82
2023-10-10T17:35:35.160Z,37.76
2023-10-10T17:38:20.186Z,38.17
2023-10-10T17:41:05.592Z,39.16
2023-10-10T17:43:50.514Z,40.59
2023-10-10T17:46:35.667Z,40.89
2023-10-10T17:49:20.593Z,40.42
2023-10-10T17:52:05.538Z,40.69
2023-10-10T17:54:50.493Z,40.54
2023-10-10T17:57:35.571Z,40.81
2023-10-10T18:00:20.574Z,40.79
2023-10-10T18:03:05.615Z,42.12
2023-10-10T18:05:50.717Z,43.04
2023-10-10T18:08:35.649Z,43.69
2023-10-10T18:11:20.686Z,44.59
2023-10-10T18:14:05.613Z,44.97
2023-10-10T18:16:50.766Z,43.70
2023-10-10T18:19:35.692Z,43.47
2023-10-10T18:22:20.731Z,43.51
2023-10-10T18:25:05.794Z,43.44
2023-10-10T18:27:50.482Z,43.61
2023-10-10T18:30:35.616Z,44.13
2023-10-10T18:33:20.660Z,44.58
2023-10-10T18:36:05.600Z,45.24
2023-10-10T18:38:50.656Z,44.36
2023-10-10T18:41:35.648Z,43.15
2023-10-10T18:44:20.716Z,42.96
2023-10-10T18:47:05.790Z,43.66
2023-10-10T18:49:50.797Z,42.61
2023-10-10T18:52:35.766Z,39.60
2023-10-10T18:55:20.917Z,40.96
2023-10-10T18:58:05.967Z,39.28
2023-10-10T19:00:51.017Z,40.98
2023-10-10T19:03:36.206Z,41.05
2023-10-10T19:06:21.237Z,40.98
2023-10-10T19:09:06.222Z,41.75
2023-10-10T19:11:51.187Z,42.64
2023-10-10T19:14:36.459Z,42.38
2023-10-10T19:17:21.464Z,42.46
2023-10-10T19:20:06.564Z,42.93
2023-10-10T19:22:51.471Z,42.66
2023-10-10T19:25:36.482Z,43.55
2023-10-10T19:28:21.525Z,43.24
2023-10-10T19:31:06.504Z,43.23
2023-10-10T19:33:51.784Z,43.24
2023-10-10T19:36:36.613Z,43.48
2023-10-10T19:39:21.754Z,43.71
2023-10-10T19:42:06.654Z,44.14
2023-10-10T19:44:51.862Z,43.53
2023-10-10T19:47:38.145Z,43.63
2023-10-10T19:50:25.451Z,44.22
2023-10-10T19:53:10.401Z,43.70
2023-10-10T19:55:55.341Z,43.92
2023-10-10T19:58:40.348Z,44.23
2023-10-10T20:01:25.472Z,44.19
2023-10-10T20:04:10.674Z,43.45
2023-10-10T20:06:55.487Z,43.70
2023-10-10T20:09:40.380Z,43.23
2023-10-10T20:12:25.417Z,44.15
2023-10-10T20:15:10.423Z,43.76
2023-10-10T20:17:55.475Z,43.19
2023-10-10T20:20:40.285Z,42.60
2023-10-10T20:23:25.232Z,42.80
2023-10-10T20:26:10.162Z,42.66
2023-10-10T20:28:55.171Z,42.84
2023-10-10T20:31:40.337Z,43.44
2023-10-10T20:34:25.344Z,43.61
2023-10-10T20:37:10.355Z,43.05
2023-10-10T20:39:55.388Z,42.39
2023-10-10T20:42:40.531Z,42.27
2023-10-10T20:45:25.437Z,43.04
2023-10-10T20:48:10.876Z,43.78
2023-10-10T20:50:56.323Z,44.10
2023-10-10T20:53:41.322Z,44.10
2023-10-10T20:56:26.358Z,44.85
2023-10-10T20:59:11.334Z,45.59
2023-10-10T21:01:56.448Z,45.96
2023-10-10T21:04:41.493Z,46.46
2023-10-10T21:07:26.566Z,46.71
2023-10-10T21:10:11.690Z,45.84
2023-10-10T21:12:56.476Z,46.01
2023-10-10T21:15:41.643Z,46.68
2023-10-10T21:18:26.714Z,46.59
2023-10-10T21:21:11.783Z,46.96
2023-10-10T21:23:56.744Z,45.68
2023-10-10T21:26:41.652Z,44.51
2023-10-10T21:29:26.644Z,44.66
2023-10-10T21:32:11.750Z,44.30
2023-10-10T21:34:56.712Z,44.92
2023-10-10T21:37:41.674Z,45.29
2023-10-10T21:40:26.729Z,44.84
2023-10-10T21:43:11.704Z,44.46
2023-10-10T21:45:56.719Z,44.80
2023-10-10T21:48:41.665Z,45.38
2023-10-10T21:51:26.710Z,46.26
2023-10-10T21:54:11.625Z,45.76
2023-10-10T21:56:56.679Z,45.79
2023-10-10T21:59:41.794Z,45.71
2023-10-10T22:02:26.781Z,44.19
2023-10-10T22:05:11.721Z,44.21
2023-10-10T22:07:56.721Z,43.48
2023-10-10T22:10:41.617Z,42.71
2023-10-10T22:13:26.690Z,40.74
2023-10-10T22:16:11.952Z,40.12
2023-10-10T22:18:57.030Z,40.33
2023-10-10T22:21:41.923Z,42.20
2023-10-10T22:24:26.895Z,42.63
2023-10-10T22:27:11.820Z,41.88
2023-10-10T22:29:56.708Z,42.46
2023-10-10T22:32:41.720Z,42.41
2023-10-10T22:35:26.783Z,43.22
2023-10-10T22:38:11.712Z,43.61
2023-10-10T22:40:56.787Z,43.06
2023-10-10T22:43:42.053Z,44.58
2023-10-10T22:46:26.994Z,44.16
2023-10-10T22:49:11.996Z,43.37
2023-10-10T22:51:57.005Z,42.58
2023-10-10T22:54:42.033Z,41.87
2023-10-10T22:57:26.998Z,41.03
2023-10-10T23:00:12.047Z,40.71
2023-10-10T23:02:57.167Z,40.78
2023-10-10T23:05:42.087Z,39.45
2023-10-10T23:08:27.047Z,38.96
2023-10-10T23:11:12.067Z,39.85
2023-10-10T23:13:57.264Z,40.96
2023-10-10T23:16:42.218Z,41.81
2023-10-10T23:19:27.169Z,41.32
2023-10-10T23:22:12.158Z,40.82
2023-10-10T23:24:57.328Z,39.52
2023-10-10T23:27:42.314Z,39.34
2023-10-10T23:30:27.280Z,39.07
2023-10-10T23:33:14.006Z,38.97
2023-10-10T23:35:58.880Z,39.96
2023-10-10T23:38:43.996Z,39.50
2023-10-10T23:41:29.012Z,38.41
2023-10-10T23:44:14.088Z,39.16
2023-10-10T23:46:59.271Z,39.70
2023-10-10T23:49:44.314Z,40.64
2023-10-10T23:52:29.455Z,39.77
2023-10-10T23:55:14.378Z,39.90
2023-10-10T23:57:59.392Z,39.02
